Conway, North Dakota
Current Conditions -  °F | °C
As of 10:58 PM on Friday 19 Dec 2014 (Local Time) from KRDR Reporting Station
Overcast Overcast  
Wind Chill: 25°   Ceiling: 900
Heat Index: 29°   Visibility: 10mi
Dew Point: 29°   Wind: 5mph
Humidity: 100%   Direction: 240°WSW
Pressure: 30"   Gusts: NA
Location:  48.2362°N, 97.4515°W
Report Text: KRDR 200458Z AUTO 24004KT 10SM OVC009 M01/M01 A3000 RMK AO2 SLP177 T10141014
Loading
Personal Weather Stations






























Interactive Weather Map New forecast layout! Learn more

10-Day Weather Forecast

Advertisements
Track Severe Weather on mobile